sensor_id;sensor_type;location;lat;lon;timestamp;P1;durP1;ratioP1;P2;durP2;ratioP2
20069;SDS011;10195;50.868;4.382;2022-11-20T00:01:40;36.77;;;20.33;;
20069;SDS011;10195;50.868;4.382;2022-11-20T00:04:06;34.07;;;20.27;;
20069;SDS011;10195;50.868;4.382;2022-11-20T00:06:33;33.37;;;21.43;;
20069;SDS011;10195;50.868;4.382;2022-11-20T00:08:59;35.27;;;20.87;;
20069;SDS011;10195;50.868;4.382;2022-11-20T00:11:26;45.73;;;22.60;;
20069;SDS011;10195;50.868;4.382;2022-11-20T00:13:54;41.70;;;23.97;;
20069;SDS011;10195;50.868;4.382;2022-11-20T00:16:23;44.33;;;24.07;;
20069;SDS011;10195;50.868;4.382;2022-11-20T00:18:50;46.60;;;23.77;;
20069;SDS011;10195;50.868;4.382;2022-11-20T00:21:20;45.97;;;24.27;;
20069;SDS011;10195;50.868;4.382;2022-11-20T00:23:47;47.53;;;24.80;;
20069;SDS011;10195;50.868;4.382;2022-11-20T00:26:14;49.23;;;24.13;;
20069;SDS011;10195;50.868;4.382;2022-11-20T00:28:43;43.53;;;24.43;;
20069;SDS011;10195;50.868;4.382;2022-11-20T00:31:13;46.87;;;23.67;;
20069;SDS011;10195;50.868;4.382;2022-11-20T00:33:40;50.67;;;24.87;;
20069;SDS011;10195;50.868;4.382;2022-11-20T00:36:08;49.77;;;26.90;;
20069;SDS011;10195;50.868;4.382;2022-11-20T00:38:35;42.97;;;25.23;;
20069;SDS011;10195;50.868;4.382;2022-11-20T00:41:02;44.03;;;24.53;;
20069;SDS011;10195;50.868;4.382;2022-11-20T00:43:29;45.57;;;25.23;;
20069;SDS011;10195;50.868;4.382;2022-11-20T00:45:59;46.67;;;25.20;;
20069;SDS011;10195;50.868;4.382;2022-11-20T00:48:26;43.70;;;25.57;;
20069;SDS011;10195;50.868;4.382;2022-11-20T00:50:52;50.13;;;26.47;;
20069;SDS011;10195;50.868;4.382;2022-11-20T00:53:18;54.60;;;25.73;;
20069;SDS011;10195;50.868;4.382;2022-11-20T00:55:52;48.93;;;25.70;;
20069;SDS011;10195;50.868;4.382;2022-11-20T00:58:21;47.20;;;25.93;;
20069;SDS011;10195;50.868;4.382;2022-11-20T01:00:47;45.40;;;24.73;;
20069;SDS011;10195;50.868;4.382;2022-11-20T01:03:14;66.70;;;25.20;;
20069;SDS011;10195;50.868;4.382;2022-11-20T01:05:41;49.53;;;25.80;;
20069;SDS011;10195;50.868;4.382;2022-11-20T01:08:07;57.27;;;29.17;;
20069;SDS011;10195;50.868;4.382;2022-11-20T01:10:32;50.80;;;28.07;;
20069;SDS011;10195;50.868;4.382;2022-11-20T01:12:58;49.60;;;27.93;;
20069;SDS011;10195;50.868;4.382;2022-11-20T01:15:42;53.33;;;27.73;;
20069;SDS011;10195;50.868;4.382;2022-11-20T01:18:08;54.20;;;27.53;;
20069;SDS011;10195;50.868;4.382;2022-11-20T01:20:34;57.00;;;29.70;;
20069;SDS011;10195;50.868;4.382;2022-11-20T01:23:01;52.07;;;29.33;;
20069;SDS011;10195;50.868;4.382;2022-11-20T01:25:27;51.40;;;27.63;;
20069;SDS011;10195;50.868;4.382;2022-11-20T01:27:53;57.17;;;28.77;;
20069;SDS011;10195;50.868;4.382;2022-11-20T01:30:18;57.47;;;30.67;;
20069;SDS011;10195;50.868;4.382;2022-11-20T01:32:44;62.47;;;29.67;;
20069;SDS011;10195;50.868;4.382;2022-11-20T01:35:09;57.57;;;30.13;;
20069;SDS011;10195;50.868;4.382;2022-11-20T01:37:35;55.97;;;31.60;;
20069;SDS011;10195;50.868;4.382;2022-11-20T01:40:01;56.37;;;29.30;;
20069;SDS011;10195;50.868;4.382;2022-11-20T01:42:27;57.77;;;29.93;;
20069;SDS011;10195;50.868;4.382;2022-11-20T01:48:12;54.20;;;29.50;;
20069;SDS011;10195;50.868;4.382;2022-11-20T01:50:39;60.43;;;31.80;;
20069;SDS011;10195;50.868;4.382;2022-11-20T01:53:07;63.23;;;32.13;;
20069;SDS011;10195;50.868;4.382;2022-11-20T01:55:37;55.43;;;30.67;;
20069;SDS011;10195;50.868;4.382;2022-11-20T01:58:08;56.80;;;31.37;;
20069;SDS011;10195;50.868;4.382;2022-11-20T02:00:34;61.63;;;30.93;;
20069;SDS011;10195;50.868;4.382;2022-11-20T02:03:01;60.27;;;31.73;;
20069;SDS011;10195;50.868;4.382;2022-11-20T02:08:11;61.17;;;31.80;;
20069;SDS011;10195;50.868;4.382;2022-11-20T02:10:38;63.10;;;32.77;;
20069;SDS011;10195;50.868;4.382;2022-11-20T02:13:03;62.27;;;34.73;;
20069;SDS011;10195;50.868;4.382;2022-11-20T02:15:48;67.03;;;31.87;;
20069;SDS011;10195;50.868;4.382;2022-11-20T02:18:14;68.67;;;32.20;;
20069;SDS011;10195;50.868;4.382;2022-11-20T02:20:42;61.50;;;32.00;;
20069;SDS011;10195;50.868;4.382;2022-11-20T02:26:02;58.73;;;30.60;;
20069;SDS011;10195;50.868;4.382;2022-11-20T02:28:30;61.37;;;31.20;;
20069;SDS011;10195;50.868;4.382;2022-11-20T02:30:56;55.83;;;30.90;;
20069;SDS011;10195;50.868;4.382;2022-11-20T02:33:22;61.30;;;29.13;;
20069;SDS011;10195;50.868;4.382;2022-11-20T02:35:47;62.63;;;31.13;;
20069;SDS011;10195;50.868;4.382;2022-11-20T02:38:13;59.00;;;30.80;;
20069;SDS011;10195;50.868;4.382;2022-11-20T02:40:40;61.27;;;30.17;;
20069;SDS011;10195;50.868;4.382;2022-11-20T02:43:06;62.53;;;30.93;;
20069;SDS011;10195;50.868;4.382;2022-11-20T02:45:32;46.67;;;26.47;;
20069;SDS011;10195;50.868;4.382;2022-11-20T02:47:57;52.70;;;27.33;;
20069;SDS011;10195;50.868;4.382;2022-11-20T02:50:23;52.90;;;28.50;;
20069;SDS011;10195;50.868;4.382;2022-11-20T02:52:49;49.53;;;27.13;;
20069;SDS011;10195;50.868;4.382;2022-11-20T02:55:14;51.13;;;26.53;;
20069;SDS011;10195;50.868;4.382;2022-11-20T02:57:40;50.37;;;27.33;;
20069;SDS011;10195;50.868;4.382;2022-11-20T03:00:05;52.03;;;26.00;;
20069;SDS011;10195;50.868;4.382;2022-11-20T03:02:32;45.67;;;24.57;;
20069;SDS011;10195;50.868;4.382;2022-11-20T03:04:58;47.40;;;25.57;;
20069;SDS011;10195;50.868;4.382;2022-11-20T03:07:24;43.77;;;24.77;;
20069;SDS011;10195;50.868;4.382;2022-11-20T03:09:49;43.70;;;24.43;;
20069;SDS011;10195;50.868;4.382;2022-11-20T03:12:15;51.83;;;23.83;;
20069;SDS011;10195;50.868;4.382;2022-11-20T03:14:41;45.13;;;25.03;;
20069;SDS011;10195;50.868;4.382;2022-11-20T03:17:06;45.70;;;23.23;;
20069;SDS011;10195;50.868;4.382;2022-11-20T03:19:32;37.43;;;20.63;;
20069;SDS011;10195;50.868;4.382;2022-11-20T03:21:57;38.60;;;18.17;;
20069;SDS011;10195;50.868;4.382;2022-11-20T03:24:23;40.13;;;21.43;;
20069;SDS011;10195;50.868;4.382;2022-11-20T03:26:48;39.27;;;21.10;;
20069;SDS011;10195;50.868;4.382;2022-11-20T03:29:14;38.93;;;20.73;;
20069;SDS011;10195;50.868;4.382;2022-11-20T03:31:40;39.97;;;20.73;;
20069;SDS011;10195;50.868;4.382;2022-11-20T03:34:06;44.07;;;22.93;;
20069;SDS011;10195;50.868;4.382;2022-11-20T03:36:33;41.87;;;21.30;;
20069;SDS011;10195;50.868;4.382;2022-11-20T03:38:59;45.27;;;21.43;;
20069;SDS011;10195;50.868;4.382;2022-11-20T03:41:29;48.27;;;22.37;;
20069;SDS011;10195;50.868;4.382;2022-11-20T03:43:57;41.87;;;22.43;;
20069;SDS011;10195;50.868;4.382;2022-11-20T03:46:23;42.27;;;21.80;;
20069;SDS011;10195;50.868;4.382;2022-11-20T03:48:49;43.57;;;22.77;;
20069;SDS011;10195;50.868;4.382;2022-11-20T03:51:19;43.83;;;22.43;;
20069;SDS011;10195;50.868;4.382;2022-11-20T03:53:47;42.30;;;22.63;;
20069;SDS011;10195;50.868;4.382;2022-11-20T03:56:14;40.33;;;21.40;;
20069;SDS011;10195;50.868;4.382;2022-11-20T03:58:41;46.47;;;22.27;;
20069;SDS011;10195;50.868;4.382;2022-11-20T04:01:11;40.30;;;22.10;;
20069;SDS011;10195;50.868;4.382;2022-11-20T04:03:39;49.10;;;22.87;;
20069;SDS011;10195;50.868;4.382;2022-11-20T04:06:07;46.37;;;23.53;;
20069;SDS011;10195;50.868;4.382;2022-11-20T04:08:34;45.30;;;22.60;;
20069;SDS011;10195;50.868;4.382;2022-11-20T04:11:16;48.27;;;22.80;;
20069;SDS011;10195;50.868;4.382;2022-11-20T04:13:48;53.77;;;24.03;;
20069;SDS011;10195;50.868;4.382;2022-11-20T04:16:15;47.63;;;23.60;;
20069;SDS011;10195;50.868;4.382;2022-11-20T04:18:41;43.37;;;22.53;;
20069;SDS011;10195;50.868;4.382;2022-11-20T04:21:08;48.73;;;24.67;;
20069;SDS011;10195;50.868;4.382;2022-11-20T04:23:34;48.40;;;22.83;;
20069;SDS011;10195;50.868;4.382;2022-11-20T04:26:07;48.87;;;24.57;;
20069;SDS011;10195;50.868;4.382;2022-11-20T04:28:34;57.17;;;27.10;;
20069;SDS011;10195;50.868;4.382;2022-11-20T04:31:05;49.57;;;24.87;;
20069;SDS011;10195;50.868;4.382;2022-11-20T04:33:35;47.27;;;24.40;;
20069;SDS011;10195;50.868;4.382;2022-11-20T04:36:03;54.47;;;24.70;;
20069;SDS011;10195;50.868;4.382;2022-11-20T04:38:29;56.60;;;25.87;;
20069;SDS011;10195;50.868;4.382;2022-11-20T04:40:58;56.80;;;27.47;;
20069;SDS011;10195;50.868;4.382;2022-11-20T04:43:26;59.87;;;27.70;;
20069;SDS011;10195;50.868;4.382;2022-11-20T04:45:52;58.57;;;26.40;;
20069;SDS011;10195;50.868;4.382;2022-11-20T04:48:18;64.43;;;28.20;;
20069;SDS011;10195;50.868;4.382;2022-11-20T04:50:47;63.30;;;28.00;;
20069;SDS011;10195;50.868;4.382;2022-11-20T04:53:12;58.50;;;27.30;;
20069;SDS011;10195;50.868;4.382;2022-11-20T04:55:38;59.03;;;27.03;;
20069;SDS011;10195;50.868;4.382;2022-11-20T04:58:04;65.07;;;27.80;;
20069;SDS011;10195;50.868;4.382;2022-11-20T05:00:32;59.27;;;26.27;;
20069;SDS011;10195;50.868;4.382;2022-11-20T05:02:58;59.97;;;27.57;;
20069;SDS011;10195;50.868;4.382;2022-11-20T05:05:24;58.20;;;27.37;;
20069;SDS011;10195;50.868;4.382;2022-11-20T05:07:49;62.90;;;28.87;;
20069;SDS011;10195;50.868;4.382;2022-11-20T05:10:15;65.03;;;27.23;;
20069;SDS011;10195;50.868;4.382;2022-11-20T05:12:41;62.57;;;27.30;;
20069;SDS011;10195;50.868;4.382;2022-11-20T05:15:06;58.97;;;26.90;;
20069;SDS011;10195;50.868;4.382;2022-11-20T05:17:32;51.93;;;24.93;;
20069;SDS011;10195;50.868;4.382;2022-11-20T05:19:58;59.40;;;27.90;;
20069;SDS011;10195;50.868;4.382;2022-11-20T05:22:24;64.47;;;28.30;;
20069;SDS011;10195;50.868;4.382;2022-11-20T05:24:49;63.43;;;28.97;;
20069;SDS011;10195;50.868;4.382;2022-11-20T05:27:15;62.10;;;27.97;;
20069;SDS011;10195;50.868;4.382;2022-11-20T05:29:41;63.90;;;29.30;;
20069;SDS011;10195;50.868;4.382;2022-11-20T05:32:06;63.87;;;27.73;;
20069;SDS011;10195;50.868;4.382;2022-11-20T05:34:34;67.47;;;27.97;;
20069;SDS011;10195;50.868;4.382;2022-11-20T05:37:00;56.70;;;28.00;;
20069;SDS011;10195;50.868;4.382;2022-11-20T05:39:26;57.57;;;27.47;;
20069;SDS011;10195;50.868;4.382;2022-11-20T05:41:51;65.27;;;28.17;;
20069;SDS011;10195;50.868;4.382;2022-11-20T05:44:37;66.17;;;28.90;;
20069;SDS011;10195;50.868;4.382;2022-11-20T05:47:03;63.47;;;28.27;;
20069;SDS011;10195;50.868;4.382;2022-11-20T05:49:28;68.63;;;28.40;;
20069;SDS011;10195;50.868;4.382;2022-11-20T05:51:54;65.80;;;28.80;;
20069;SDS011;10195;50.868;4.382;2022-11-20T05:54:19;61.67;;;27.03;;
20069;SDS011;10195;50.868;4.382;2022-11-20T05:56:45;66.37;;;28.47;;
20069;SDS011;10195;50.868;4.382;2022-11-20T05:59:11;65.40;;;28.40;;
20069;SDS011;10195;50.868;4.382;2022-11-20T06:01:36;62.73;;;30.47;;
20069;SDS011;10195;50.868;4.382;2022-11-20T06:04:02;63.63;;;28.27;;
20069;SDS011;10195;50.868;4.382;2022-11-20T06:06:27;60.97;;;28.17;;
20069;SDS011;10195;50.868;4.382;2022-11-20T06:08:54;63.57;;;29.07;;
20069;SDS011;10195;50.868;4.382;2022-11-20T06:11:20;65.00;;;28.80;;
20069;SDS011;10195;50.868;4.382;2022-11-20T06:13:46;64.40;;;28.47;;
20069;SDS011;10195;50.868;4.382;2022-11-20T06:16:12;63.00;;;28.20;;
20069;SDS011;10195;50.868;4.382;2022-11-20T06:18:39;64.23;;;28.53;;
20069;SDS011;10195;50.868;4.382;2022-11-20T06:21:06;70.57;;;30.27;;
20069;SDS011;10195;50.868;4.382;2022-11-20T06:23:34;63.30;;;27.80;;
20069;SDS011;10195;50.868;4.382;2022-11-20T06:26:01;66.17;;;27.77;;
20069;SDS011;10195;50.868;4.382;2022-11-20T06:28:28;62.93;;;27.40;;
20069;SDS011;10195;50.868;4.382;2022-11-20T06:30:54;67.10;;;27.70;;
20069;SDS011;10195;50.868;4.382;2022-11-20T06:33:19;67.27;;;27.73;;
20069;SDS011;10195;50.868;4.382;2022-11-20T06:35:45;66.13;;;28.80;;
20069;SDS011;10195;50.868;4.382;2022-11-20T06:38:10;63.03;;;27.13;;
20069;SDS011;10195;50.868;4.382;2022-11-20T06:40:39;62.97;;;28.27;;
20069;SDS011;10195;50.868;4.382;2022-11-20T06:43:05;62.37;;;27.10;;
20069;SDS011;10195;50.868;4.382;2022-11-20T06:45:31;69.93;;;27.33;;
20069;SDS011;10195;50.868;4.382;2022-11-20T06:47:57;67.87;;;27.73;;
20069;SDS011;10195;50.868;4.382;2022-11-20T06:50:23;66.03;;;29.10;;
20069;SDS011;10195;50.868;4.382;2022-11-20T06:52:49;70.53;;;29.30;;
20069;SDS011;10195;50.868;4.382;2022-11-20T06:55:14;59.47;;;27.03;;
20069;SDS011;10195;50.868;4.382;2022-11-20T06:57:40;62.80;;;27.47;;
20069;SDS011;10195;50.868;4.382;2022-11-20T07:00:06;68.17;;;29.17;;
20069;SDS011;10195;50.868;4.382;2022-11-20T07:02:32;61.37;;;27.73;;
20069;SDS011;10195;50.868;4.382;2022-11-20T07:04:57;68.07;;;29.30;;
20069;SDS011;10195;50.868;4.382;2022-11-20T07:07:23;67.63;;;27.83;;
20069;SDS011;10195;50.868;4.382;2022-11-20T07:09:48;68.27;;;28.07;;
20069;SDS011;10195;50.868;4.382;2022-11-20T07:12:14;70.03;;;27.77;;
20069;SDS011;10195;50.868;4.382;2022-11-20T07:14:40;63.57;;;27.97;;
20069;SDS011;10195;50.868;4.382;2022-11-20T07:17:05;68.00;;;28.30;;
20069;SDS011;10195;50.868;4.382;2022-11-20T07:19:31;66.03;;;28.37;;
20069;SDS011;10195;50.868;4.382;2022-11-20T07:21:56;62.87;;;27.37;;
20069;SDS011;10195;50.868;4.382;2022-11-20T07:24:22;63.83;;;29.87;;
20069;SDS011;10195;50.868;4.382;2022-11-20T07:26:47;65.13;;;26.93;;
20069;SDS011;10195;50.868;4.382;2022-11-20T07:29:16;66.33;;;27.27;;
20069;SDS011;10195;50.868;4.382;2022-11-20T07:31:42;68.00;;;27.60;;
20069;SDS011;10195;50.868;4.382;2022-11-20T07:34:08;72.87;;;29.40;;
20069;SDS011;10195;50.868;4.382;2022-11-20T07:36:33;62.10;;;27.27;;
20069;SDS011;10195;50.868;4.382;2022-11-20T07:38:59;63.30;;;27.63;;
20069;SDS011;10195;50.868;4.382;2022-11-20T07:41:25;63.07;;;27.47;;
20069;SDS011;10195;50.868;4.382;2022-11-20T07:43:50;62.13;;;27.17;;
20069;SDS011;10195;50.868;4.382;2022-11-20T07:46:16;54.97;;;26.50;;
20069;SDS011;10195;50.868;4.382;2022-11-20T07:48:42;56.90;;;26.23;;
20069;SDS011;10195;50.868;4.382;2022-11-20T07:51:07;63.17;;;26.23;;
20069;SDS011;10195;50.868;4.382;2022-11-20T07:53:33;57.60;;;25.13;;
20069;SDS011;10195;50.868;4.382;2022-11-20T07:55:59;61.97;;;27.13;;
20069;SDS011;10195;50.868;4.382;2022-11-20T07:58:25;56.17;;;24.70;;
20069;SDS011;10195;50.868;4.382;2022-11-20T08:00:51;66.87;;;27.10;;
20069;SDS011;10195;50.868;4.382;2022-11-20T08:03:16;73.77;;;26.63;;
20069;SDS011;10195;50.868;4.382;2022-11-20T08:05:42;70.67;;;27.73;;
20069;SDS011;10195;50.868;4.382;2022-11-20T08:08:08;67.37;;;26.10;;
20069;SDS011;10195;50.868;4.382;2022-11-20T08:10:33;69.53;;;26.47;;
20069;SDS011;10195;50.868;4.382;2022-11-20T08:12:59;65.00;;;26.60;;
20069;SDS011;10195;50.868;4.382;2022-11-20T08:15:47;69.43;;;27.40;;
20069;SDS011;10195;50.868;4.382;2022-11-20T08:18:15;69.43;;;27.50;;
20069;SDS011;10195;50.868;4.382;2022-11-20T08:20:40;69.50;;;27.20;;
20069;SDS011;10195;50.868;4.382;2022-11-20T08:23:06;63.10;;;26.37;;
20069;SDS011;10195;50.868;4.382;2022-11-20T08:25:33;62.53;;;26.93;;
20069;SDS011;10195;50.868;4.382;2022-11-20T08:28:00;59.60;;;25.00;;
20069;SDS011;10195;50.868;4.382;2022-11-20T08:30:27;60.27;;;24.97;;
20069;SDS011;10195;50.868;4.382;2022-11-20T08:32:53;57.60;;;23.97;;
20069;SDS011;10195;50.868;4.382;2022-11-20T08:35:20;55.30;;;23.03;;
20069;SDS011;10195;50.868;4.382;2022-11-20T08:37:46;68.33;;;24.77;;
20069;SDS011;10195;50.868;4.382;2022-11-20T08:40:12;62.83;;;25.63;;
20069;SDS011;10195;50.868;4.382;2022-11-20T08:42:45;60.53;;;25.23;;
20069;SDS011;10195;50.868;4.382;2022-11-20T08:45:15;64.90;;;26.07;;
20069;SDS011;10195;50.868;4.382;2022-11-20T08:47:41;61.83;;;24.67;;
20069;SDS011;10195;50.868;4.382;2022-11-20T08:50:08;64.90;;;25.27;;
20069;SDS011;10195;50.868;4.382;2022-11-20T08:52:34;55.87;;;24.87;;
20069;SDS011;10195;50.868;4.382;2022-11-20T08:55:00;60.83;;;24.47;;
20069;SDS011;10195;50.868;4.382;2022-11-20T08:57:25;62.90;;;25.80;;
20069;SDS011;10195;50.868;4.382;2022-11-20T08:59:51;58.67;;;25.13;;
20069;SDS011;10195;50.868;4.382;2022-11-20T09:02:17;58.13;;;23.67;;
20069;SDS011;10195;50.868;4.382;2022-11-20T09:04:42;54.03;;;24.20;;
20069;SDS011;10195;50.868;4.382;2022-11-20T09:07:08;54.00;;;23.37;;
20069;SDS011;10195;50.868;4.382;2022-11-20T09:09:33;56.40;;;23.00;;
20069;SDS011;10195;50.868;4.382;2022-11-20T09:11:59;60.87;;;24.83;;
20069;SDS011;10195;50.868;4.382;2022-11-20T09:14:24;52.37;;;23.30;;
20069;SDS011;10195;50.868;4.382;2022-11-20T09:16:54;53.60;;;22.73;;
20069;SDS011;10195;50.868;4.382;2022-11-20T09:19:20;50.57;;;21.60;;
20069;SDS011;10195;50.868;4.382;2022-11-20T09:21:45;54.77;;;23.23;;
20069;SDS011;10195;50.868;4.382;2022-11-20T09:24:11;48.93;;;22.60;;
20069;SDS011;10195;50.868;4.382;2022-11-20T09:26:37;43.67;;;20.37;;
20069;SDS011;10195;50.868;4.382;2022-11-20T09:29:02;48.33;;;20.87;;
20069;SDS011;10195;50.868;4.382;2022-11-20T09:31:28;46.83;;;20.67;;
20069;SDS011;10195;50.868;4.382;2022-11-20T09:33:53;52.17;;;21.40;;
20069;SDS011;10195;50.868;4.382;2022-11-20T09:36:19;44.17;;;21.23;;
20069;SDS011;10195;50.868;4.382;2022-11-20T09:38:45;43.07;;;21.17;;
20069;SDS011;10195;50.868;4.382;2022-11-20T09:52:30;39.07;;;19.73;;
20069;SDS011;10195;50.868;4.382;2022-11-20T09:55:10;35.60;;;17.50;;
20069;SDS011;10195;50.868;4.382;2022-11-20T09:57:39;29.77;;;16.07;;
20069;SDS011;10195;50.868;4.382;2022-11-20T10:00:11;31.80;;;16.00;;
20069;SDS011;10195;50.868;4.382;2022-11-20T10:02:48;31.50;;;15.53;;
20069;SDS011;10195;50.868;4.382;2022-11-20T10:10:50;31.77;;;16.20;;
20069;SDS011;10195;50.868;4.382;2022-11-20T10:29:27;22.57;;;11.50;;
20069;SDS011;10195;50.868;4.382;2022-11-20T10:32:02;16.47;;;9.87;;
20069;SDS011;10195;50.868;4.382;2022-11-20T10:34:52;15.30;;;8.87;;
20069;SDS011;10195;50.868;4.382;2022-11-20T10:37:27;21.83;;;9.30;;
20069;SDS011;10195;50.868;4.382;2022-11-20T10:40:00;20.10;;;9.67;;
20069;SDS011;10195;50.868;4.382;2022-11-20T10:47:53;15.37;;;8.10;;
20069;SDS011;10195;50.868;4.382;2022-11-20T10:50:42;16.70;;;7.63;;
20069;SDS011;10195;50.868;4.382;2022-11-20T10:56:04;16.43;;;6.90;;
20069;SDS011;10195;50.868;4.382;2022-11-20T10:58:48;14.30;;;6.80;;
20069;SDS011;10195;50.868;4.382;2022-11-20T11:01:27;15.07;;;6.33;;
20069;SDS011;10195;50.868;4.382;2022-11-20T11:03:54;9.73;;;5.20;;
20069;SDS011;10195;50.868;4.382;2022-11-20T11:06:27;11.27;;;4.80;;
20069;SDS011;10195;50.868;4.382;2022-11-20T11:09:04;13.27;;;5.43;;
20069;SDS011;10195;50.868;4.382;2022-11-20T11:11:38;12.57;;;5.23;;
20069;SDS011;10195;50.868;4.382;2022-11-20T11:14:05;14.57;;;4.97;;
20069;SDS011;10195;50.868;4.382;2022-11-20T11:16:32;11.90;;;4.93;;
20069;SDS011;10195;50.868;4.382;2022-11-20T11:19:11;10.30;;;4.67;;
20069;SDS011;10195;50.868;4.382;2022-11-20T11:21:38;12.73;;;4.87;;
20069;SDS011;10195;50.868;4.382;2022-11-20T11:24:21;9.50;;;4.53;;
20069;SDS011;10195;50.868;4.382;2022-11-20T11:27:04;11.50;;;4.67;;
20069;SDS011;10195;50.868;4.382;2022-11-20T11:29:37;8.77;;;4.17;;
20069;SDS011;10195;50.868;4.382;2022-11-20T11:32:04;12.60;;;4.20;;
20069;SDS011;10195;50.868;4.382;2022-11-20T11:34:31;7.27;;;3.70;;
20069;SDS011;10195;50.868;4.382;2022-11-20T11:36:57;8.93;;;4.30;;
20069;SDS011;10195;50.868;4.382;2022-11-20T11:39:24;17.77;;;4.43;;
20069;SDS011;10195;50.868;4.382;2022-11-20T11:41:51;14.00;;;4.23;;
20069;SDS011;10195;50.868;4.382;2022-11-20T11:47:29;9.80;;;3.60;;
20069;SDS011;10195;50.868;4.382;2022-11-20T11:52:43;7.37;;;3.50;;
20069;SDS011;10195;50.868;4.382;2022-11-20T11:55:27;12.17;;;3.20;;
20069;SDS011;10195;50.868;4.382;2022-11-20T12:01:17;7.03;;;3.50;;
20069;SDS011;10195;50.868;4.382;2022-11-20T12:06:34;9.27;;;5.00;;
20069;SDS011;10195;50.868;4.382;2022-11-20T12:09:05;11.53;;;3.50;;
20069;SDS011;10195;50.868;4.382;2022-11-20T12:14:35;8.43;;;3.03;;
20069;SDS011;10195;50.868;4.382;2022-11-20T12:17:03;9.80;;;3.40;;
20069;SDS011;10195;50.868;4.382;2022-11-20T12:19:30;7.30;;;2.87;;
20069;SDS011;10195;50.868;4.382;2022-11-20T12:24:59;10.23;;;3.00;;
20069;SDS011;10195;50.868;4.382;2022-11-20T12:30:23;12.27;;;3.07;;
20069;SDS011;10195;50.868;4.382;2022-11-20T12:46:51;6.47;;;3.17;;
20069;SDS011;10195;50.868;4.382;2022-11-20T12:49:48;7.43;;;3.63;;
20069;SDS011;10195;50.868;4.382;2022-11-20T13:08:38;10.33;;;3.10;;
20069;SDS011;10195;50.868;4.382;2022-11-20T13:16:37;7.40;;;3.23;;
20069;SDS011;10195;50.868;4.382;2022-11-20T13:19:10;5.00;;;3.03;;
20069;SDS011;10195;50.868;4.382;2022-11-20T13:21:39;8.90;;;2.97;;
20069;SDS011;10195;50.868;4.382;2022-11-20T13:24:21;8.93;;;2.90;;
20069;SDS011;10195;50.868;4.382;2022-11-20T13:29:26;6.50;;;3.30;;
20069;SDS011;10195;50.868;4.382;2022-11-20T13:32:00;6.57;;;2.80;;
20069;SDS011;10195;50.868;4.382;2022-11-20T13:34:29;5.23;;;3.03;;
20069;SDS011;10195;50.868;4.382;2022-11-20T13:36:56;7.57;;;2.93;;
20069;SDS011;10195;50.868;4.382;2022-11-20T13:39:32;6.60;;;3.20;;
20069;SDS011;10195;50.868;4.382;2022-11-20T13:42:01;6.13;;;2.93;;
20069;SDS011;10195;50.868;4.382;2022-11-20T13:44:47;5.30;;;3.10;;
20069;SDS011;10195;50.868;4.382;2022-11-20T13:47:25;5.77;;;3.00;;
20069;SDS011;10195;50.868;4.382;2022-11-20T13:49:52;5.67;;;3.00;;
20069;SDS011;10195;50.868;4.382;2022-11-20T13:55:59;5.67;;;3.10;;
20069;SDS011;10195;50.868;4.382;2022-11-20T14:01:24;4.03;;;3.00;;
20069;SDS011;10195;50.868;4.382;2022-11-20T14:03:56;7.87;;;2.93;;
20069;SDS011;10195;50.868;4.382;2022-11-20T14:08:48;5.97;;;2.60;;
20069;SDS011;10195;50.868;4.382;2022-11-20T14:11:15;3.77;;;2.80;;
20069;SDS011;10195;50.868;4.382;2022-11-20T14:13:59;4.03;;;2.67;;
20069;SDS011;10195;50.868;4.382;2022-11-20T14:16:28;4.10;;;2.90;;
20069;SDS011;10195;50.868;4.382;2022-11-20T14:18:55;5.17;;;2.47;;
20069;SDS011;10195;50.868;4.382;2022-11-20T14:21:26;7.60;;;3.00;;
20069;SDS011;10195;50.868;4.382;2022-11-20T14:24:04;5.70;;;2.77;;
20069;SDS011;10195;50.868;4.382;2022-11-20T14:26:30;6.20;;;3.23;;
20069;SDS011;10195;50.868;4.382;2022-11-20T14:28:56;5.13;;;3.13;;
20069;SDS011;10195;50.868;4.382;2022-11-20T14:31:23;6.37;;;2.50;;
20069;SDS011;10195;50.868;4.382;2022-11-20T14:33:54;5.10;;;2.70;;
20069;SDS011;10195;50.868;4.382;2022-11-20T14:36:22;4.17;;;2.97;;
20069;SDS011;10195;50.868;4.382;2022-11-20T14:38:50;6.00;;;3.23;;
20069;SDS011;10195;50.868;4.382;2022-11-20T14:41:21;5.47;;;2.97;;
20069;SDS011;10195;50.868;4.382;2022-11-20T14:43:57;5.73;;;3.70;;
20069;SDS011;10195;50.868;4.382;2022-11-20T14:46:24;6.23;;;3.20;;
20069;SDS011;10195;50.868;4.382;2022-11-20T14:48:51;9.63;;;4.10;;
20069;SDS011;10195;50.868;4.382;2022-11-20T14:51:33;6.53;;;3.60;;
20069;SDS011;10195;50.868;4.382;2022-11-20T14:54:34;4.87;;;2.77;;
20069;SDS011;10195;50.868;4.382;2022-11-20T14:59:25;6.87;;;3.30;;
20069;SDS011;10195;50.868;4.382;2022-11-20T15:01:54;5.27;;;3.77;;
20069;SDS011;10195;50.868;4.382;2022-11-20T15:04:24;8.13;;;2.73;;
20069;SDS011;10195;50.868;4.382;2022-11-20T15:06:51;11.57;;;3.37;;
20069;SDS011;10195;50.868;4.382;2022-11-20T15:09:18;6.17;;;3.03;;
20069;SDS011;10195;50.868;4.382;2022-11-20T15:11:57;4.20;;;3.43;;
20069;SDS011;10195;50.868;4.382;2022-11-20T15:14:25;6.67;;;3.30;;
20069;SDS011;10195;50.868;4.382;2022-11-20T15:16:52;6.37;;;3.33;;
20069;SDS011;10195;50.868;4.382;2022-11-20T15:19:20;5.80;;;3.50;;
20069;SDS011;10195;50.868;4.382;2022-11-20T15:21:47;4.87;;;3.10;;
20069;SDS011;10195;50.868;4.382;2022-11-20T15:24:12;4.47;;;3.00;;
20069;SDS011;10195;50.868;4.382;2022-11-20T15:26:38;8.10;;;3.73;;
20069;SDS011;10195;50.868;4.382;2022-11-20T15:29:14;5.17;;;3.30;;
20069;SDS011;10195;50.868;4.382;2022-11-20T15:31:43;7.57;;;5.37;;
20069;SDS011;10195;50.868;4.382;2022-11-20T15:34:16;8.00;;;3.93;;
20069;SDS011;10195;50.868;4.382;2022-11-20T15:36:44;18.70;;;4.30;;
20069;SDS011;10195;50.868;4.382;2022-11-20T15:39:10;12.30;;;6.10;;
20069;SDS011;10195;50.868;4.382;2022-11-20T15:41:36;11.23;;;3.60;;
20069;SDS011;10195;50.868;4.382;2022-11-20T15:44:03;9.87;;;3.87;;
20069;SDS011;10195;50.868;4.382;2022-11-20T15:46:30;12.90;;;4.17;;
20069;SDS011;10195;50.868;4.382;2022-11-20T15:49:02;12.77;;;4.87;;
20069;SDS011;10195;50.868;4.382;2022-11-20T15:53:54;9.13;;;4.00;;
20069;SDS011;10195;50.868;4.382;2022-11-20T15:56:21;8.20;;;4.30;;
20069;SDS011;10195;50.868;4.382;2022-11-20T15:58:46;9.60;;;3.80;;
20069;SDS011;10195;50.868;4.382;2022-11-20T16:01:13;5.40;;;3.13;;
20069;SDS011;10195;50.868;4.382;2022-11-20T16:03:41;10.87;;;4.37;;
20069;SDS011;10195;50.868;4.382;2022-11-20T16:06:07;18.33;;;4.67;;
20069;SDS011;10195;50.868;4.382;2022-11-20T16:08:33;8.90;;;4.20;;
20069;SDS011;10195;50.868;4.382;2022-11-20T16:10:59;17.27;;;5.17;;
20069;SDS011;10195;50.868;4.382;2022-11-20T16:13:24;16.90;;;4.10;;
20069;SDS011;10195;50.868;4.382;2022-11-20T16:16:25;24.90;;;4.90;;
20069;SDS011;10195;50.868;4.382;2022-11-20T16:18:53;19.73;;;4.50;;
20069;SDS011;10195;50.868;4.382;2022-11-20T16:21:19;19.40;;;4.30;;
20069;SDS011;10195;50.868;4.382;2022-11-20T16:23:45;18.70;;;5.73;;
20069;SDS011;10195;50.868;4.382;2022-11-20T16:26:12;17.60;;;4.07;;
20069;SDS011;10195;50.868;4.382;2022-11-20T16:28:39;14.00;;;3.80;;
20069;SDS011;10195;50.868;4.382;2022-11-20T16:31:08;14.97;;;3.77;;
20069;SDS011;10195;50.868;4.382;2022-11-20T16:33:35;16.17;;;3.97;;
20069;SDS011;10195;50.868;4.382;2022-11-20T16:36:10;15.77;;;4.27;;
20069;SDS011;10195;50.868;4.382;2022-11-20T16:38:37;22.77;;;5.07;;